createdAt,value
2023-04-15T00:01:55.093Z,100495.56
2023-04-15T00:04:28.467Z,100494.81
2023-04-15T00:07:05.525Z,100493.25
2023-04-15T00:09:49.960Z,100498.84
2023-04-15T00:12:22.524Z,100494.53
2023-04-15T00:14:57.097Z,100493.75
2023-04-15T00:17:29.999Z,100494.22
2023-04-15T00:20:16.882Z,100487.88
2023-04-15T00:22:54.754Z,100491.91
2023-04-15T00:25:47.854Z,100487.59
2023-04-15T00:28:41.986Z,100490.41
2023-04-15T00:31:17.568Z,100484.03
2023-04-15T00:37:32.752Z,100494.09
2023-04-15T00:40:36.415Z,100489.78
2023-04-15T00:43:27.787Z,100492.56
2023-04-15T00:46:24.727Z,100486.72
2023-04-15T00:48:57.893Z,100489.50
2023-04-15T00:55:26.061Z,100482.09
2023-04-15T00:58:49.088Z,100481.31
2023-04-15T01:02:24.127Z,100479.03
2023-04-15T01:05:01.981Z,100484.59
2023-04-15T01:07:48.101Z,100483.84
2023-04-15T01:10:33.635Z,100487.88
2023-04-15T01:13:28.231Z,100482.28
2023-04-15T01:16:21.602Z,100487.09
2023-04-15T01:28:41.687Z,100482.19
2023-04-15T01:31:27.646Z,100476.34
2023-04-15T01:44:40.842Z,100478.84
2023-04-15T01:47:32.307Z,100488.44
2023-04-15T01:50:05.548Z,100480.56
2023-04-15T01:52:38.237Z,100489.44
2023-04-15T01:59:26.407Z,100475.94
2023-04-15T02:01:59.801Z,100485.56
2023-04-15T02:04:41.072Z,100477.69
2023-04-15T02:07:32.653Z,100474.88
2023-04-15T02:10:05.562Z,100482.50
2023-04-15T02:12:38.100Z,100487.28
2023-04-15T02:15:26.047Z,100485.00
2023-04-15T02:18:10.887Z,100489.78
2023-04-15T02:32:58.361Z,100510.00
2023-04-15T02:37:40.219Z,100514.81
2023-04-15T02:39:08.094Z,100506.91
2023-04-15T02:41:43.961Z,100510.19
2023-04-15T02:44:43.006Z,100510.19
2023-04-15T02:47:26.390Z,100511.91
2023-04-15T02:50:01.811Z,100521.06
2023-04-15T02:52:34.440Z,100521.53
2023-04-15T02:55:09.893Z,100520.00
2023-04-15T02:57:42.482Z,100527.59
2023-04-15T03:03:28.287Z,100525.28
2023-04-15T03:09:48.474Z,100521.44
2023-04-15T03:12:27.807Z,100515.09
2023-04-15T03:18:13.061Z,100518.34
2023-04-15T03:20:57.793Z,100518.84
2023-04-15T03:23:56.700Z,100522.88
2023-04-15T03:26:30.520Z,100522.09
2023-04-15T03:29:22.345Z,100529.72
2023-04-15T03:32:00.701Z,100529.41
2023-04-15T03:34:42.359Z,100529.41
2023-04-15T03:43:08.372Z,100534.41
2023-04-15T03:46:08.377Z,100545.56
2023-04-15T03:48:40.969Z,100549.59
2023-04-15T03:51:31.771Z,100548.06
2023-04-15T03:54:06.953Z,100555.66
2023-04-15T03:57:46.538Z,100556.13
2023-04-15T04:00:19.828Z,100565.72
2023-04-15T04:02:52.619Z,100569.00
2023-04-15T04:05:41.649Z,100576.59
2023-04-15T04:14:34.105Z,100586.69
2023-04-15T04:20:48.628Z,100589.97
2023-04-15T04:26:42.540Z,100598.03
2023-04-15T04:29:47.775Z,100594.94
2023-04-15T04:32:23.828Z,100605.78
2023-04-15T04:34:56.633Z,100611.38
2023-04-15T04:37:29.209Z,100607.03
2023-04-15T04:40:27.034Z,100613.88
2023-04-15T04:43:24.034Z,100627.03
2023-04-15T04:46:08.715Z,100631.81
2023-04-15T04:48:56.095Z,100623.47
2023-04-15T04:51:57.988Z,100635.56
2023-04-15T04:54:31.609Z,100634.81
2023-04-15T04:57:16.637Z,100639.63
2023-04-15T04:59:52.225Z,100647.19
2023-04-15T05:02:27.959Z,100642.09
2023-04-15T05:05:22.936Z,100648.91
2023-04-15T05:08:01.652Z,100650.94
2023-04-15T05:10:58.209Z,100659.28
2023-04-15T05:13:38.757Z,100654.19
2023-04-15T05:16:26.178Z,100661.78
2023-04-15T05:18:58.991Z,100672.16
2023-04-15T05:21:41.427Z,100668.63
2023-04-15T05:24:19.465Z,100667.81
2023-04-15T05:27:11.982Z,100680.22
2023-04-15T05:29:53.671Z,100685.81
2023-04-15T05:32:33.230Z,100690.59
2023-04-15T05:35:11.619Z,100684.25
2023-04-15T05:37:50.158Z,100693.09
2023-04-15T05:40:23.151Z,100696.66
2023-04-15T05:45:34.244Z,100710.59
2023-04-15T05:48:39.473Z,100708.09
2023-04-15T05:51:20.729Z,100720.78
2023-04-15T05:53:53.405Z,100717.84
2023-04-15T05:56:41.187Z,100716.88
2023-04-15T05:59:17.254Z,100723.81
2023-04-15T06:01:52.176Z,100724.44
2023-04-15T06:05:30.073Z,100723.81
2023-04-15T06:11:59.034Z,100735.22
2023-04-15T06:15:09.879Z,100741.19
2023-04-15T06:17:42.464Z,100747.22
2023-04-15T06:20:15.173Z,100754.91
2023-04-15T06:22:59.479Z,100762.66
2023-04-15T06:25:47.293Z,100770.38
2023-04-15T06:28:19.839Z,100774.06
2023-04-15T06:30:53.464Z,100781.00
2023-04-15T06:33:25.995Z,100787.94
2023-04-15T06:35:58.508Z,100785.28
2023-04-15T06:38:52.462Z,100792.25
2023-04-15T06:41:25.131Z,100788.00
2023-04-15T06:43:57.993Z,100797.78
2023-04-15T06:46:48.751Z,100807.53
2023-04-15T06:49:21.228Z,100814.47
2023-04-15T06:51:53.828Z,100824.66
2023-04-15T06:54:32.493Z,100826.81
2023-04-15T06:57:07.497Z,100821.84
2023-04-15T06:59:40.085Z,100832.81
2023-04-15T07:02:28.048Z,100832.63
2023-04-15T07:07:50.252Z,100839.41
2023-04-15T07:13:13.745Z,100850.97
2023-04-15T07:15:46.565Z,100855.63
2023-04-15T07:18:19.332Z,100856.97
2023-04-15T07:20:52.300Z,100860.06
2023-04-15T07:23:25.876Z,100861.91
2023-04-15T07:25:58.389Z,100870.88
2023-04-15T07:28:31.022Z,100869.59
2023-04-15T07:31:17.038Z,100880.13
2023-04-15T07:33:58.566Z,100873.56
2023-04-15T07:36:52.716Z,100877.44
2023-04-15T07:39:25.951Z,100889.69
2023-04-15T07:44:52.268Z,100893.34
2023-04-15T07:47:40.869Z,100899.25
2023-04-15T07:50:13.430Z,100899.06
2023-04-15T07:52:46.532Z,100904.47
2023-04-15T07:55:37.655Z,100906.00
2023-04-15T07:58:10.434Z,100899.19
2023-04-15T08:00:57.136Z,100911.44
2023-04-15T08:03:29.896Z,100917.81
2023-04-15T08:06:20.728Z,100919.34
2023-04-15T08:09:11.431Z,100922.13
2023-04-15T08:11:44.111Z,100928.03
2023-04-15T08:14:17.111Z,100925.72
2023-04-15T08:17:04.444Z,100930.53
2023-04-15T08:19:40.859Z,100936.13
2023-04-15T08:22:28.795Z,100941.72
2023-04-15T08:25:01.595Z,100947.31
2023-04-15T08:27:35.080Z,100952.91
2023-04-15T08:30:08.570Z,100950.09
2023-04-15T08:33:00.690Z,100962.56
2023-04-15T08:38:28.162Z,100968.13
2023-04-15T08:44:18.091Z,100976.22
2023-04-15T08:46:52.616Z,100976.69
2023-04-15T08:49:41.281Z,100977.19
2023-04-15T08:52:14.404Z,100992.38
2023-04-15T08:54:58.909Z,100992.84
2023-04-15T08:57:31.607Z,100991.31
2023-04-15T09:04:08.137Z,101007.03
2023-04-15T09:06:59.883Z,101005.47
2023-04-15T09:09:32.889Z,101015.13
2023-04-15T09:12:14.804Z,101031.91
2023-04-15T09:15:03.328Z,101027.53
2023-04-15T09:18:13.878Z,101035.16
2023-04-15T09:20:46.808Z,101036.72
2023-04-15T09:23:32.547Z,101030.03
2023-04-15T09:26:20.398Z,101034.88
2023-04-15T09:29:10.316Z,101039.69
2023-04-15T09:31:54.529Z,101052.91
2023-04-15T09:34:36.915Z,101057.69
2023-04-15T09:37:31.749Z,101056.47
2023-04-15T09:40:35.143Z,101056.47
2023-04-15T09:45:58.985Z,101068.41
2023-04-15T09:48:31.585Z,101064.38
2023-04-15T09:54:21.668Z,101071.03
2023-04-15T09:57:10.378Z,101083.00
2023-04-15T09:59:43.008Z,101079.72
2023-04-15T10:02:16.464Z,101083.75
2023-04-15T10:04:49.729Z,101092.44
2023-04-15T10:07:26.162Z,101089.66
2023-04-15T10:10:02.367Z,101091.22
2023-04-15T10:12:37.618Z,101094.00
2023-04-15T10:15:29.958Z,101095.53
2023-04-15T10:18:05.624Z,101095.53
2023-04-15T10:20:38.798Z,101087.94
2023-04-15T10:23:13.425Z,101097.09
2023-04-15T10:26:04.293Z,101089.94
2023-04-15T10:28:37.172Z,101094.78
2023-04-15T10:31:12.967Z,101093.50
2023-04-15T10:33:47.684Z,101092.75
2023-04-15T10:36:23.265Z,101098.81
2023-04-15T10:38:55.725Z,101101.13
2023-04-15T10:41:34.400Z,101096.81
2023-04-15T10:44:22.370Z,101105.19
2023-04-15T10:46:58.571Z,101099.59
2023-04-15T10:49:31.164Z,101106.72
2023-04-15T10:52:03.621Z,101109.22
2023-04-15T10:54:38.837Z,101108.47
2023-04-15T10:57:35.371Z,101110.47
2023-04-15T11:00:18.996Z,101112.50
2023-04-15T11:03:08.448Z,101123.69
2023-04-15T11:06:04.055Z,101118.88
2023-04-15T11:08:56.730Z,101124.47
2023-04-15T11:12:10.515Z,101124.47
2023-04-15T11:14:55.504Z,101122.91
2023-04-15T11:17:31.409Z,101122.91
2023-04-15T11:20:05.649Z,101129.28
2023-04-15T11:23:12.977Z,101129.75
2023-04-15T11:25:48.498Z,101124.47
2023-04-15T11:28:21.240Z,101125.22
2023-04-15T11:30:55.538Z,101133.16
2023-04-15T11:33:37.448Z,101133.16
2023-04-15T11:36:12.651Z,101141.03
2023-04-15T11:38:47.635Z,101141.03
2023-04-15T11:41:29.347Z,101129.09
2023-04-15T11:44:16.602Z,101137.78
2023-04-15T11:46:49.107Z,101139.34
2023-04-15T11:49:42.808Z,101146.47
2023-04-15T11:52:15.356Z,101154.44
2023-04-15T11:54:47.821Z,101153.63
2023-04-15T11:57:20.455Z,101151.13
2023-04-15T11:59:55.387Z,101150.69
2023-04-15T12:02:37.646Z,101150.22
2023-04-15T12:05:12.068Z,101147.41
2023-04-15T12:08:09.168Z,101154.53
2023-04-15T12:10:41.681Z,101162.94
2023-04-15T12:13:14.812Z,101161.69
2023-04-15T12:16:03.663Z,101157.63
2023-04-15T12:18:42.133Z,101161.19
2023-04-15T12:21:14.696Z,101173.66
2023-04-15T12:23:58.144Z,101178.78
2023-04-15T12:27:03.817Z,101184.38
2023-04-15T12:29:41.739Z,101197.09
2023-04-15T12:32:16.573Z,101193.06
2023-04-15T12:34:54.492Z,101198.66
2023-04-15T12:37:27.193Z,101200.97
2023-04-15T12:40:02.857Z,101203.28
2023-04-15T12:42:35.598Z,101211.69
2023-04-15T12:45:11.538Z,101216.03
2023-04-15T12:47:44.050Z,101216.81
2023-04-15T12:50:17.800Z,101200.78
2023-04-15T12:52:50.351Z,101219.13
2023-04-15T12:55:31.903Z,101217.13
2023-04-15T12:58:04.479Z,101229.06
2023-04-15T13:00:37.416Z,101224.25
2023-04-15T13:03:10.387Z,101239.00
2023-04-15T13:05:45.970Z,101233.41
2023-04-15T13:08:21.880Z,101238.06
2023-04-15T13:10:54.464Z,101229.69
2023-04-15T13:13:27.408Z,101231.72
2023-04-15T13:16:00.188Z,101239.31
2023-04-15T13:21:27.788Z,101255.78
2023-04-15T13:24:04.524Z,101251.75
2023-04-15T13:26:40.504Z,101255.78
2023-04-15T13:29:14.167Z,101258.88
2023-04-15T13:31:46.789Z,101250.78
2023-04-15T13:34:19.489Z,101245.19
2023-04-15T13:36:52.844Z,101269.59
2023-04-15T13:39:28.182Z,101259.97
2023-04-15T13:42:12.042Z,101259.50
2023-04-15T13:44:44.728Z,101258.72
2023-04-15T13:47:19.113Z,101271.19
2023-04-15T13:49:57.726Z,101271.63
2023-04-15T13:58:06.213Z,101278.00
2023-04-15T14:00:38.737Z,101292.75
2023-04-15T14:03:11.420Z,101289.19
2023-04-15T14:05:56.033Z,101294.00
2023-04-15T14:08:28.544Z,101313.13
2023-04-15T14:11:01.300Z,101303.94
2023-04-15T14:13:36.882Z,101310.34
2023-04-15T14:16:15.620Z,101311.09
2023-04-15T14:18:48.247Z,101306.28
2023-04-15T14:21:21.141Z,101315.44
2023-04-15T14:23:54.190Z,101322.59
2023-04-15T14:26:26.893Z,101324.13
2023-04-15T14:28:59.704Z,101335.31
2023-04-15T14:31:32.179Z,101332.53
2023-04-15T14:36:59.916Z,101344.19
2023-04-15T14:39:32.508Z,101335.78
2023-04-15T14:42:17.192Z,101346.22
2023-04-15T14:44:50.557Z,101356.63
2023-04-15T14:50:15.673Z,101360.97
2023-04-15T14:52:48.188Z,101361.75
2023-04-15T14:55:20.685Z,101376.97
2023-04-15T14:57:53.227Z,101374.50
2023-04-15T15:00:27.942Z,101373.72
2023-04-15T15:03:00.769Z,101384.16
2023-04-15T15:05:34.856Z,101381.34
2023-04-15T15:08:08.947Z,101391.47
2023-04-15T15:10:48.641Z,101382.28
2023-04-15T15:13:22.678Z,101392.22
2023-04-15T15:15:55.353Z,101393.78
2023-04-15T15:18:31.556Z,101399.84
2023-04-15T15:21:04.347Z,101389.44
2023-04-15T15:23:37.171Z,101397.81
2023-04-15T15:26:09.822Z,101409.78
2023-04-15T15:28:42.470Z,101403.41
2023-04-15T15:31:14.945Z,101403.41
2023-04-15T15:33:47.515Z,101413.84
2023-04-15T15:36:20.034Z,101425.81
2023-04-15T15:38:52.860Z,101425.81
2023-04-15T15:41:25.978Z,101422.25
2023-04-15T15:44:07.288Z,101428.28
2023-04-15T15:46:40.140Z,101433.88
2023-04-15T15:49:12.786Z,101433.56
2023-04-15T15:51:58.672Z,101443.19
2023-04-15T15:54:35.475Z,101441.34
2023-04-15T15:57:15.115Z,101441.34
2023-04-15T15:59:47.612Z,101445.41
2023-04-15T16:02:34.877Z,101450.19
2023-04-15T16:05:13.760Z,101459.84
2023-04-15T16:07:49.185Z,101461.88
2023-04-15T16:10:21.690Z,101467.16
2023-04-15T16:15:58.588Z,101472.13
2023-04-15T16:18:32.026Z,101488.16
2023-04-15T16:21:16.790Z,101492.94
2023-04-15T16:23:49.258Z,101499.47
2023-04-15T16:26:21.818Z,101501.00
2023-04-15T16:28:54.408Z,101503.50
2023-04-15T16:31:27.046Z,101507.56
2023-04-15T16:33:59.608Z,101504.41
2023-04-15T16:36:36.095Z,101509.69
2023-04-15T16:39:08.583Z,101519.78
2023-04-15T16:41:42.620Z,101518.72
2023-04-15T16:44:15.226Z,101528.81
2023-04-15T16:49:36.925Z,101538.56
2023-04-15T16:52:09.758Z,101542.63
2023-04-15T16:54:47.121Z,101544.31
2023-04-15T16:57:19.812Z,101547.56
2023-04-15T16:59:52.303Z,101551.63
2023-04-15T17:02:25.241Z,101551.00
2023-04-15T17:04:57.902Z,101546.63
2023-04-15T17:07:40.513Z,101551.13
2023-04-15T17:10:16.252Z,101554.38
2023-04-15T17:12:52.408Z,101564.00
2023-04-15T17:15:31.327Z,101560.91
2023-04-15T17:18:06.649Z,101568.97
2023-04-15T17:20:42.378Z,101570.22
2023-04-15T17:23:15.544Z,101565.53
2023-04-15T17:26:03.383Z,101570.03
2023-04-15T17:28:44.709Z,101576.06
2023-04-15T17:31:19.674Z,101572.97
2023-04-15T17:34:07.405Z,101586.63
2023-04-15T17:36:53.623Z,101585.53
2023-04-15T17:39:26.485Z,101582.41
2023-04-15T17:41:59.056Z,101585.69
2023-04-15T17:44:40.795Z,101593.75
2023-04-15T17:47:37.471Z,101601.81
2023-04-15T17:50:10.249Z,101605.06
2023-04-15T17:52:58.506Z,101609.88
2023-04-15T17:55:46.225Z,101612.34
2023-04-15T17:58:45.803Z,101610.78
2023-04-15T18:01:19.524Z,101623.53
2023-04-15T18:04:17.733Z,101626.75
2023-04-15T18:07:02.321Z,101628.00
2023-04-15T18:09:41.605Z,101630.00
2023-04-15T18:12:14.251Z,101634.06
2023-04-15T18:14:55.791Z,101632.50
2023-04-15T18:17:34.341Z,101630.59
2023-04-15T18:20:07.494Z,101626.72
2023-04-15T18:22:43.514Z,101633.56
2023-04-15T18:25:16.404Z,101643.94
2023-04-15T18:31:03.820Z,101646.56
2023-04-15T18:33:36.392Z,101650.56
2023-04-15T18:36:10.045Z,101648.25
2023-04-15T18:38:42.641Z,101659.09
2023-04-15T18:41:15.261Z,101671.50
2023-04-15T18:44:00.745Z,101667.16
2023-04-15T18:46:33.577Z,101665.56
2023-04-15T18:49:07.370Z,101672.41
2023-04-15T18:51:50.113Z,101672.41
2023-04-15T18:54:42.746Z,101675.66
2023-04-15T18:57:20.335Z,101672.53
2023-04-15T18:59:57.829Z,101679.81
2023-04-15T19:02:30.646Z,101690.22
2023-04-15T19:05:18.997Z,101693.41
2023-04-15T19:08:00.672Z,101696.66
2023-04-15T19:10:53.006Z,101699.91
2023-04-15T19:13:41.140Z,101701.91
2023-04-15T19:16:49.277Z,101705.94
2023-04-15T19:19:21.917Z,101714.78
2023-04-15T19:22:13.475Z,101717.56
2023-04-15T19:24:46.297Z,101714.44
2023-04-15T19:27:19.156Z,101729.66
2023-04-15T19:30:14.146Z,101733.66
2023-04-15T19:32:46.679Z,101734.13
2023-04-15T19:35:26.685Z,101739.38
2023-04-15T19:38:10.737Z,101735.78
2023-04-15T19:40:43.476Z,101744.16
2023-04-15T19:43:17.088Z,101736.25
2023-04-15T19:49:01.786Z,101741.03
2023-04-15T19:52:21.061Z,101744.31
2023-04-15T19:55:14.736Z,101742.72
2023-04-15T19:57:47.281Z,101746.78
2023-04-15T20:00:20.050Z,101763.50
2023-04-15T20:03:09.927Z,101761.16
2023-04-15T20:05:54.363Z,101756.34
2023-04-15T20:08:45.562Z,101761.94
2023-04-15T20:11:18.096Z,101770.78
2023-04-15T20:14:07.300Z,101763.63
2023-04-15T20:19:36.457Z,101764.53
2023-04-15T20:22:33.187Z,101764.22
2023-04-15T20:25:06.284Z,101762.97
2023-04-15T20:27:52.169Z,101768.22
2023-04-15T20:31:32.056Z,101767.00
2023-04-15T20:43:49.030Z,101772.84
2023-04-15T20:46:22.014Z,101769.72
2023-04-15T20:48:55.807Z,101764.13
2023-04-15T20:56:32.093Z,101774.16
2023-04-15T21:02:57.603Z,101778.63
2023-04-15T21:05:51.840Z,101776.31
2023-04-15T21:08:29.375Z,101777.06
2023-04-15T21:13:34.449Z,101779.19
2023-04-15T21:16:14.119Z,101784.44
2023-04-15T21:18:46.742Z,101784.44
2023-04-15T21:21:19.281Z,101784.88
2023-04-15T21:23:53.839Z,101786.91
2023-04-15T21:26:35.844Z,101789.38
2023-04-15T21:29:28.567Z,101789.38
2023-04-15T21:32:01.389Z,101783.78
2023-04-15T21:34:34.124Z,101791.81
2023-04-15T21:37:06.713Z,101794.16
2023-04-15T21:39:39.318Z,101798.16
2023-04-15T21:42:11.985Z,101791.81
2023-04-15T21:44:44.591Z,101795.84
2023-04-15T21:48:01.399Z,101796.63
2023-04-15T21:50:41.293Z,101795.84
2023-04-15T21:53:13.937Z,101795.03
2023-04-15T21:56:10.102Z,101788.69
2023-04-15T21:58:43.184Z,101798.31
2023-04-15T22:04:22.087Z,101797.97
2023-04-15T22:06:55.827Z,101805.56
2023-04-15T22:10:20.330Z,101810.34
2023-04-15T22:12:52.968Z,101814.38
2023-04-15T22:19:02.152Z,101813.59
2023-04-15T22:22:05.176Z,101821.97
2023-04-15T22:24:39.595Z,101821.63
2023-04-15T22:27:21.989Z,101824.41
2023-04-15T22:29:54.789Z,101820.81
2023-04-15T22:35:44.339Z,101828.41
2023-04-15T22:38:16.876Z,101837.25
2023-04-15T22:40:58.686Z,101823.31
2023-04-15T22:47:06.080Z,101834.13
2023-04-15T22:53:32.336Z,101842.50
2023-04-15T22:56:27.698Z,101849.28
2023-04-15T22:59:00.546Z,101850.53
2023-04-15T23:09:39.840Z,101856.19
2023-04-15T23:12:14.246Z,101866.59
2023-04-15T23:14:47.873Z,101866.59
2023-04-15T23:17:23.444Z,101865.00
2023-04-15T23:19:59.109Z,101869.03
2023-04-15T23:22:37.814Z,101869.03
2023-04-15T23:29:04.252Z,101866.69
2023-04-15T23:31:37.126Z,101867.91
2023-04-15T23:34:33.028Z,101871.47
2023-04-15T23:37:24.210Z,101879.06
2023-04-15T23:43:22.186Z,101879.50
2023-04-15T23:48:57.234Z,101878.75
2023-04-15T23:51:31.366Z,101885.09
2023-04-15T23:54:54.193Z,101878.75
2023-04-15T23:57:35.594Z,101877.97
